sensor_id;sensor_type;location;lat;lon;timestamp;temperature;humidity
35258;DHT22;21385;50.878;8.050;2023-05-10T00:02:02;13.40;99.90
35258;DHT22;21385;50.878;8.050;2023-05-10T00:04:28;13.30;99.90
35258;DHT22;21385;50.878;8.050;2023-05-10T00:06:54;13.30;99.90
35258;DHT22;21385;50.878;8.050;2023-05-10T00:09:20;13.40;99.90
35258;DHT22;21385;50.878;8.050;2023-05-10T00:11:45;13.40;99.90
35258;DHT22;21385;50.878;8.050;2023-05-10T00:14:11;13.40;99.90
35258;DHT22;21385;50.878;8.050;2023-05-10T00:16:37;13.40;99.90
35258;DHT22;21385;50.878;8.050;2023-05-10T00:19:02;13.40;99.90
35258;DHT22;21385;50.878;8.050;2023-05-10T00:21:28;13.40;99.90
35258;DHT22;21385;50.878;8.050;2023-05-10T00:23:54;13.40;99.90
35258;DHT22;21385;50.878;8.050;2023-05-10T00:26:20;13.30;99.90
35258;DHT22;21385;50.878;8.050;2023-05-10T00:28:45;13.40;99.90
35258;DHT22;21385;50.878;8.050;2023-05-10T00:31:11;13.40;99.90
35258;DHT22;21385;50.878;8.050;2023-05-10T00:33:36;13.40;99.90
35258;DHT22;21385;50.878;8.050;2023-05-10T00:36:02;13.40;99.90
35258;DHT22;21385;50.878;8.050;2023-05-10T00:38:28;13.40;99.90
35258;DHT22;21385;50.878;8.050;2023-05-10T00:40:54;13.40;99.90
35258;DHT22;21385;50.878;8.050;2023-05-10T00:43:19;13.50;99.90
35258;DHT22;21385;50.878;8.050;2023-05-10T00:45:46;13.50;99.90
35258;DHT22;21385;50.878;8.050;2023-05-10T00:48:11;13.50;99.90
35258;DHT22;21385;50.878;8.050;2023-05-10T00:50:38;13.50;99.90
35258;DHT22;21385;50.878;8.050;2023-05-10T00:53:05;13.50;99.90
35258;DHT22;21385;50.878;8.050;2023-05-10T00:55:31;13.60;99.90
35258;DHT22;21385;50.878;8.050;2023-05-10T00:57:56;13.60;99.90
35258;DHT22;21385;50.878;8.050;2023-05-10T01:00:22;13.70;99.90
35258;DHT22;21385;50.878;8.050;2023-05-10T01:02:48;13.70;99.90
35258;DHT22;21385;50.878;8.050;2023-05-10T01:05:14;13.60;99.90
35258;DHT22;21385;50.878;8.050;2023-05-10T01:07:40;13.60;99.90
35258;DHT22;21385;50.878;8.050;2023-05-10T01:10:07;13.60;99.90
35258;DHT22;21385;50.878;8.050;2023-05-10T01:12:37;13.60;99.90
35258;DHT22;21385;50.878;8.050;2023-05-10T01:15:05;13.60;99.90
35258;DHT22;21385;50.878;8.050;2023-05-10T01:17:31;13.60;99.90
35258;DHT22;21385;50.878;8.050;2023-05-10T01:19:56;13.60;99.90
35258;DHT22;21385;50.878;8.050;2023-05-10T01:25:19;13.60;99.90
35258;DHT22;21385;50.878;8.050;2023-05-10T01:33:13;13.70;99.90
35258;DHT22;21385;50.878;8.050;2023-05-10T01:35:51;13.70;99.90
35258;DHT22;21385;50.878;8.050;2023-05-10T01:38:28;13.60;99.90
35258;DHT22;21385;50.878;8.050;2023-05-10T01:41:28;13.60;99.90
35258;DHT22;21385;50.878;8.050;2023-05-10T01:44:17;13.60;99.90
35258;DHT22;21385;50.878;8.050;2023-05-10T01:46:49;13.60;99.90
35258;DHT22;21385;50.878;8.050;2023-05-10T01:49:18;13.60;99.90
35258;DHT22;21385;50.878;8.050;2023-05-10T01:51:49;13.60;99.90
35258;DHT22;21385;50.878;8.050;2023-05-10T01:54:19;13.50;99.90
35258;DHT22;21385;50.878;8.050;2023-05-10T01:56:48;13.50;99.90
35258;DHT22;21385;50.878;8.050;2023-05-10T01:59:17;13.50;99.90
35258;DHT22;21385;50.878;8.050;2023-05-10T02:01:45;13.50;99.90
35258;DHT22;21385;50.878;8.050;2023-05-10T02:04:15;13.40;99.90
35258;DHT22;21385;50.878;8.050;2023-05-10T02:06:42;13.40;99.90
35258;DHT22;21385;50.878;8.050;2023-05-10T02:09:10;13.40;99.90
35258;DHT22;21385;50.878;8.050;2023-05-10T02:11:39;13.40;99.90
35258;DHT22;21385;50.878;8.050;2023-05-10T02:14:07;13.30;99.90
35258;DHT22;21385;50.878;8.050;2023-05-10T02:16:35;13.30;99.90
35258;DHT22;21385;50.878;8.050;2023-05-10T02:19:02;13.30;99.90
35258;DHT22;21385;50.878;8.050;2023-05-10T02:21:28;13.30;99.90
35258;DHT22;21385;50.878;8.050;2023-05-10T02:23:55;13.30;99.90
35258;DHT22;21385;50.878;8.050;2023-05-10T02:26:23;13.30;99.90
35258;DHT22;21385;50.878;8.050;2023-05-10T02:28:50;13.30;99.90
35258;DHT22;21385;50.878;8.050;2023-05-10T02:31:17;13.30;99.90
35258;DHT22;21385;50.878;8.050;2023-05-10T02:33:44;13.30;99.90
35258;DHT22;21385;50.878;8.050;2023-05-10T02:36:12;13.40;99.90
35258;DHT22;21385;50.878;8.050;2023-05-10T02:38:38;13.40;99.90
35258;DHT22;21385;50.878;8.050;2023-05-10T02:41:05;13.40;99.90
35258;DHT22;21385;50.878;8.050;2023-05-10T02:43:33;13.40;99.90
35258;DHT22;21385;50.878;8.050;2023-05-10T02:45:59;13.40;99.90
35258;DHT22;21385;50.878;8.050;2023-05-10T02:48:25;13.40;99.90
35258;DHT22;21385;50.878;8.050;2023-05-10T02:50:52;13.40;99.90
35258;DHT22;21385;50.878;8.050;2023-05-10T02:53:22;13.40;99.90
35258;DHT22;21385;50.878;8.050;2023-05-10T02:55:51;13.40;99.90
35258;DHT22;21385;50.878;8.050;2023-05-10T02:58:17;13.40;99.90
35258;DHT22;21385;50.878;8.050;2023-05-10T03:00:45;13.40;99.90
35258;DHT22;21385;50.878;8.050;2023-05-10T03:03:11;13.40;99.90
35258;DHT22;21385;50.878;8.050;2023-05-10T03:05:37;13.40;99.90
35258;DHT22;21385;50.878;8.050;2023-05-10T03:08:02;13.40;99.90
35258;DHT22;21385;50.878;8.050;2023-05-10T03:10:30;13.30;99.90
35258;DHT22;21385;50.878;8.050;2023-05-10T03:13:25;13.40;99.90
35258;DHT22;21385;50.878;8.050;2023-05-10T03:16:15;13.40;99.90
35258;DHT22;21385;50.878;8.050;2023-05-10T03:18:54;13.30;99.90
35258;DHT22;21385;50.878;8.050;2023-05-10T03:21:22;13.30;99.90
35258;DHT22;21385;50.878;8.050;2023-05-10T03:24:21;13.30;99.90
35258;DHT22;21385;50.878;8.050;2023-05-10T03:26:49;13.30;99.90
35258;DHT22;21385;50.878;8.050;2023-05-10T03:29:16;13.30;99.90
35258;DHT22;21385;50.878;8.050;2023-05-10T03:31:42;13.30;99.90
35258;DHT22;21385;50.878;8.050;2023-05-10T03:34:08;13.30;99.90
35258;DHT22;21385;50.878;8.050;2023-05-10T03:36:33;13.30;99.90
35258;DHT22;21385;50.878;8.050;2023-05-10T03:38:59;13.30;99.90
35258;DHT22;21385;50.878;8.050;2023-05-10T03:41:25;13.30;99.90
35258;DHT22;21385;50.878;8.050;2023-05-10T03:43:51;13.30;99.90
35258;DHT22;21385;50.878;8.050;2023-05-10T03:46:17;13.40;99.90
35258;DHT22;21385;50.878;8.050;2023-05-10T03:48:42;13.40;99.90
35258;DHT22;21385;50.878;8.050;2023-05-10T03:51:08;13.40;99.90
35258;DHT22;21385;50.878;8.050;2023-05-10T03:53:33;13.30;99.90
35258;DHT22;21385;50.878;8.050;2023-05-10T03:55:59;13.30;99.90
35258;DHT22;21385;50.878;8.050;2023-05-10T03:58:25;13.30;99.90
35258;DHT22;21385;50.878;8.050;2023-05-10T04:00:51;13.30;99.90
35258;DHT22;21385;50.878;8.050;2023-05-10T04:03:17;13.30;99.90
35258;DHT22;21385;50.878;8.050;2023-05-10T04:05:43;13.40;99.90
35258;DHT22;21385;50.878;8.050;2023-05-10T04:08:08;13.50;99.90
35258;DHT22;21385;50.878;8.050;2023-05-10T04:10:34;13.50;99.90
35258;DHT22;21385;50.878;8.050;2023-05-10T04:13:00;13.50;99.90
35258;DHT22;21385;50.878;8.050;2023-05-10T04:15:25;13.40;99.90
35258;DHT22;21385;50.878;8.050;2023-05-10T04:17:51;13.50;99.90
35258;DHT22;21385;50.878;8.050;2023-05-10T04:20:17;13.50;99.90
35258;DHT22;21385;50.878;8.050;2023-05-10T04:22:42;13.50;99.90
35258;DHT22;21385;50.878;8.050;2023-05-10T04:25:08;13.40;99.90
35258;DHT22;21385;50.878;8.050;2023-05-10T04:27:34;13.40;99.90
35258;DHT22;21385;50.878;8.050;2023-05-10T04:30:00;13.40;99.90
35258;DHT22;21385;50.878;8.050;2023-05-10T04:32:25;13.30;99.90
35258;DHT22;21385;50.878;8.050;2023-05-10T04:34:51;13.40;99.90
35258;DHT22;21385;50.878;8.050;2023-05-10T04:37:17;13.40;99.90
35258;DHT22;21385;50.878;8.050;2023-05-10T04:39:43;13.40;99.90
35258;DHT22;21385;50.878;8.050;2023-05-10T04:42:08;13.50;99.90
35258;DHT22;21385;50.878;8.050;2023-05-10T04:44:34;13.50;99.90
35258;DHT22;21385;50.878;8.050;2023-05-10T04:47:00;13.60;99.90
35258;DHT22;21385;50.878;8.050;2023-05-10T04:49:27;13.60;99.90
35258;DHT22;21385;50.878;8.050;2023-05-10T04:51:53;13.50;99.90
35258;DHT22;21385;50.878;8.050;2023-05-10T04:54:19;13.50;99.90
35258;DHT22;21385;50.878;8.050;2023-05-10T04:56:44;13.60;99.90
35258;DHT22;21385;50.878;8.050;2023-05-10T04:59:10;13.60;99.90
35258;DHT22;21385;50.878;8.050;2023-05-10T05:01:36;13.50;99.90
35258;DHT22;21385;50.878;8.050;2023-05-10T05:04:01;13.50;99.90
35258;DHT22;21385;50.878;8.050;2023-05-10T05:06:27;13.40;99.90
35258;DHT22;21385;50.878;8.050;2023-05-10T05:08:53;13.30;99.90
35258;DHT22;21385;50.878;8.050;2023-05-10T05:11:18;13.30;99.90
35258;DHT22;21385;50.878;8.050;2023-05-10T05:13:44;13.30;99.90
35258;DHT22;21385;50.878;8.050;2023-05-10T05:16:09;13.30;99.90
35258;DHT22;21385;50.878;8.050;2023-05-10T05:18:36;13.30;99.90
35258;DHT22;21385;50.878;8.050;2023-05-10T05:21:02;13.30;99.90
35258;DHT22;21385;50.878;8.050;2023-05-10T05:23:27;13.40;99.90
35258;DHT22;21385;50.878;8.050;2023-05-10T05:25:53;13.40;99.90
35258;DHT22;21385;50.878;8.050;2023-05-10T05:28:20;13.40;99.90
35258;DHT22;21385;50.878;8.050;2023-05-10T05:30:45;13.50;99.90
35258;DHT22;21385;50.878;8.050;2023-05-10T05:33:12;13.50;99.90
35258;DHT22;21385;50.878;8.050;2023-05-10T05:35:38;13.50;99.90
35258;DHT22;21385;50.878;8.050;2023-05-10T05:38:03;13.40;99.90
35258;DHT22;21385;50.878;8.050;2023-05-10T05:40:29;13.40;99.90
35258;DHT22;21385;50.878;8.050;2023-05-10T05:42:55;13.40;99.90
35258;DHT22;21385;50.878;8.050;2023-05-10T05:45:20;13.40;99.90
35258;DHT22;21385;50.878;8.050;2023-05-10T05:47:46;13.30;99.90
35258;DHT22;21385;50.878;8.050;2023-05-10T05:50:12;13.40;99.90
35258;DHT22;21385;50.878;8.050;2023-05-10T05:52:38;13.40;99.90
35258;DHT22;21385;50.878;8.050;2023-05-10T05:55:04;13.40;99.90
35258;DHT22;21385;50.878;8.050;2023-05-10T05:57:30;13.40;99.90
35258;DHT22;21385;50.878;8.050;2023-05-10T05:59:55;13.40;99.90
35258;DHT22;21385;50.878;8.050;2023-05-10T06:02:21;13.40;99.90
35258;DHT22;21385;50.878;8.050;2023-05-10T06:04:46;13.40;99.90
35258;DHT22;21385;50.878;8.050;2023-05-10T06:07:12;13.40;99.90
35258;DHT22;21385;50.878;8.050;2023-05-10T06:09:38;13.40;99.90
35258;DHT22;21385;50.878;8.050;2023-05-10T06:12:03;13.50;99.90
35258;DHT22;21385;50.878;8.050;2023-05-10T06:14:29;13.60;99.90
35258;DHT22;21385;50.878;8.050;2023-05-10T06:16:54;13.70;99.90
35258;DHT22;21385;50.878;8.050;2023-05-10T06:19:20;13.70;99.90
35258;DHT22;21385;50.878;8.050;2023-05-10T06:21:46;13.70;99.90
35258;DHT22;21385;50.878;8.050;2023-05-10T06:24:11;13.70;99.90
35258;DHT22;21385;50.878;8.050;2023-05-10T06:26:37;13.80;99.90
35258;DHT22;21385;50.878;8.050;2023-05-10T06:29:02;13.80;99.90
35258;DHT22;21385;50.878;8.050;2023-05-10T06:31:28;13.90;99.90
35258;DHT22;21385;50.878;8.050;2023-05-10T06:33:53;13.90;99.90
35258;DHT22;21385;50.878;8.050;2023-05-10T06:36:19;13.90;99.90
35258;DHT22;21385;50.878;8.050;2023-05-10T06:38:44;14.00;99.90
35258;DHT22;21385;50.878;8.050;2023-05-10T06:41:10;14.00;99.90
35258;DHT22;21385;50.878;8.050;2023-05-10T06:43:36;14.10;99.90
35258;DHT22;21385;50.878;8.050;2023-05-10T06:46:05;14.10;99.90
35258;DHT22;21385;50.878;8.050;2023-05-10T06:48:30;14.10;99.90
35258;DHT22;21385;50.878;8.050;2023-05-10T06:50:56;14.10;99.90
35258;DHT22;21385;50.878;8.050;2023-05-10T06:53:21;14.10;99.90
35258;DHT22;21385;50.878;8.050;2023-05-10T06:55:49;14.10;99.90
35258;DHT22;21385;50.878;8.050;2023-05-10T06:58:14;14.20;99.90
35258;DHT22;21385;50.878;8.050;2023-05-10T07:00:40;14.20;99.90
35258;DHT22;21385;50.878;8.050;2023-05-10T07:03:06;14.20;99.90
35258;DHT22;21385;50.878;8.050;2023-05-10T07:05:32;14.30;99.90
35258;DHT22;21385;50.878;8.050;2023-05-10T07:07:57;14.30;99.90
35258;DHT22;21385;50.878;8.050;2023-05-10T07:10:23;14.30;99.90
35258;DHT22;21385;50.878;8.050;2023-05-10T07:12:48;14.30;99.90
35258;DHT22;21385;50.878;8.050;2023-05-10T07:15:14;14.40;99.90
35258;DHT22;21385;50.878;8.050;2023-05-10T07:17:41;14.50;99.90
35258;DHT22;21385;50.878;8.050;2023-05-10T07:20:07;14.50;99.90
35258;DHT22;21385;50.878;8.050;2023-05-10T07:22:33;14.50;99.90
35258;DHT22;21385;50.878;8.050;2023-05-10T07:24:58;14.50;99.90
35258;DHT22;21385;50.878;8.050;2023-05-10T07:27:24;14.50;99.90
35258;DHT22;21385;50.878;8.050;2023-05-10T07:29:50;14.40;99.90
35258;DHT22;21385;50.878;8.050;2023-05-10T07:32:16;14.40;99.90
35258;DHT22;21385;50.878;8.050;2023-05-10T07:34:41;14.40;99.90
35258;DHT22;21385;50.878;8.050;2023-05-10T07:37:07;14.40;99.90
35258;DHT22;21385;50.878;8.050;2023-05-10T07:39:32;14.40;99.90
35258;DHT22;21385;50.878;8.050;2023-05-10T07:41:58;14.30;99.90
35258;DHT22;21385;50.878;8.050;2023-05-10T07:44:24;14.40;99.90
35258;DHT22;21385;50.878;8.050;2023-05-10T07:46:49;14.30;99.90
35258;DHT22;21385;50.878;8.050;2023-05-10T07:49:15;14.30;99.90
35258;DHT22;21385;50.878;8.050;2023-05-10T07:51:41;14.30;99.90
35258;DHT22;21385;50.878;8.050;2023-05-10T07:54:07;14.30;99.90
35258;DHT22;21385;50.878;8.050;2023-05-10T07:56:33;14.30;99.90
35258;DHT22;21385;50.878;8.050;2023-05-10T07:58:59;14.30;99.90
35258;DHT22;21385;50.878;8.050;2023-05-10T08:01:26;14.30;99.90
35258;DHT22;21385;50.878;8.050;2023-05-10T08:03:52;14.30;99.90
35258;DHT22;21385;50.878;8.050;2023-05-10T08:06:19;14.30;99.90
35258;DHT22;21385;50.878;8.050;2023-05-10T08:08:48;14.30;99.90
35258;DHT22;21385;50.878;8.050;2023-05-10T08:11:19;14.30;99.90
35258;DHT22;21385;50.878;8.050;2023-05-10T08:13:46;14.30;99.90
35258;DHT22;21385;50.878;8.050;2023-05-10T08:16:11;14.40;99.90
35258;DHT22;21385;50.878;8.050;2023-05-10T08:18:38;14.50;99.90
35258;DHT22;21385;50.878;8.050;2023-05-10T08:21:04;14.50;99.90
35258;DHT22;21385;50.878;8.050;2023-05-10T08:23:29;14.50;99.90
35258;DHT22;21385;50.878;8.050;2023-05-10T08:25:55;14.40;99.90
35258;DHT22;21385;50.878;8.050;2023-05-10T08:28:21;14.40;99.90
35258;DHT22;21385;50.878;8.050;2023-05-10T08:30:46;14.50;99.90
35258;DHT22;21385;50.878;8.050;2023-05-10T08:33:12;14.40;99.90
35258;DHT22;21385;50.878;8.050;2023-05-10T08:35:37;14.30;99.90
35258;DHT22;21385;50.878;8.050;2023-05-10T08:38:03;14.20;99.90
35258;DHT22;21385;50.878;8.050;2023-05-10T08:40:29;14.20;99.90
35258;DHT22;21385;50.878;8.050;2023-05-10T08:43:07;14.20;99.90
35258;DHT22;21385;50.878;8.050;2023-05-10T08:45:40;14.20;99.90
35258;DHT22;21385;50.878;8.050;2023-05-10T08:48:07;14.20;99.90
35258;DHT22;21385;50.878;8.050;2023-05-10T08:50:38;14.30;99.90
35258;DHT22;21385;50.878;8.050;2023-05-10T08:53:06;14.40;99.90
35258;DHT22;21385;50.878;8.050;2023-05-10T08:55:32;14.50;99.90
35258;DHT22;21385;50.878;8.050;2023-05-10T08:57:59;14.60;99.90
35258;DHT22;21385;50.878;8.050;2023-05-10T09:00:26;14.60;99.90
35258;DHT22;21385;50.878;8.050;2023-05-10T09:02:52;14.70;99.90
35258;DHT22;21385;50.878;8.050;2023-05-10T09:05:18;14.70;99.90
35258;DHT22;21385;50.878;8.050;2023-05-10T09:07:44;14.80;99.90
35258;DHT22;21385;50.878;8.050;2023-05-10T09:10:11;14.80;99.90
35258;DHT22;21385;50.878;8.050;2023-05-10T09:12:37;14.80;99.90
35258;DHT22;21385;50.878;8.050;2023-05-10T09:15:04;14.80;99.90
35258;DHT22;21385;50.878;8.050;2023-05-10T09:17:31;14.80;99.90
35258;DHT22;21385;50.878;8.050;2023-05-10T09:20:01;14.90;99.90
35258;DHT22;21385;50.878;8.050;2023-05-10T09:22:27;14.90;99.90
35258;DHT22;21385;50.878;8.050;2023-05-10T09:25:10;14.80;99.90
35258;DHT22;21385;50.878;8.050;2023-05-10T09:27:37;14.70;99.90
35258;DHT22;21385;50.878;8.050;2023-05-10T09:30:04;14.70;99.90
35258;DHT22;21385;50.878;8.050;2023-05-10T09:32:40;14.80;99.90
35258;DHT22;21385;50.878;8.050;2023-05-10T09:35:16;14.80;99.90
35258;DHT22;21385;50.878;8.050;2023-05-10T09:37:43;14.80;99.90
35258;DHT22;21385;50.878;8.050;2023-05-10T09:42:42;14.90;99.90
35258;DHT22;21385;50.878;8.050;2023-05-10T09:45:08;15.00;99.90
35258;DHT22;21385;50.878;8.050;2023-05-10T09:47:36;15.10;99.90
35258;DHT22;21385;50.878;8.050;2023-05-10T09:50:03;15.10;99.90
35258;DHT22;21385;50.878;8.050;2023-05-10T09:52:53;15.20;99.90
35258;DHT22;21385;50.878;8.050;2023-05-10T09:55:37;15.30;99.90
35258;DHT22;21385;50.878;8.050;2023-05-10T09:58:03;15.40;99.90
35258;DHT22;21385;50.878;8.050;2023-05-10T10:00:53;15.40;99.90
35258;DHT22;21385;50.878;8.050;2023-05-10T10:03:20;15.40;99.90
35258;DHT22;21385;50.878;8.050;2023-05-10T10:05:47;15.50;99.90
35258;DHT22;21385;50.878;8.050;2023-05-10T10:08:14;15.50;99.90
35258;DHT22;21385;50.878;8.050;2023-05-10T10:10:41;15.50;99.90
35258;DHT22;21385;50.878;8.050;2023-05-10T10:13:07;15.50;99.90
35258;DHT22;21385;50.878;8.050;2023-05-10T10:15:36;15.50;99.90
35258;DHT22;21385;50.878;8.050;2023-05-10T10:18:03;15.50;99.90
35258;DHT22;21385;50.878;8.050;2023-05-10T10:20:31;15.50;99.90
35258;DHT22;21385;50.878;8.050;2023-05-10T10:22:57;15.50;99.90
35258;DHT22;21385;50.878;8.050;2023-05-10T10:25:23;15.50;99.90
35258;DHT22;21385;50.878;8.050;2023-05-10T10:35:36;15.20;99.90
35258;DHT22;21385;50.878;8.050;2023-05-10T10:38:02;15.00;99.90
35258;DHT22;21385;50.878;8.050;2023-05-10T10:40:32;15.00;99.90
35258;DHT22;21385;50.878;8.050;2023-05-10T10:43:27;15.00;99.90
35258;DHT22;21385;50.878;8.050;2023-05-10T10:46:15;15.10;99.90
35258;DHT22;21385;50.878;8.050;2023-05-10T10:48:48;15.30;99.90
35258;DHT22;21385;50.878;8.050;2023-05-10T10:51:14;15.40;99.90
35258;DHT22;21385;50.878;8.050;2023-05-10T10:53:40;15.50;99.90
35258;DHT22;21385;50.878;8.050;2023-05-10T10:56:11;15.70;99.90
35258;DHT22;21385;50.878;8.050;2023-05-10T10:58:40;15.90;99.90
35258;DHT22;21385;50.878;8.050;2023-05-10T11:03:39;16.20;99.90
35258;DHT22;21385;50.878;8.050;2023-05-10T11:06:05;16.30;99.90
35258;DHT22;21385;50.878;8.050;2023-05-10T11:08:32;16.30;99.90
35258;DHT22;21385;50.878;8.050;2023-05-10T11:13:38;16.50;99.90
35258;DHT22;21385;50.878;8.050;2023-05-10T11:16:14;16.50;99.90
35258;DHT22;21385;50.878;8.050;2023-05-10T11:18:40;16.50;99.90
35258;DHT22;21385;50.878;8.050;2023-05-10T11:21:09;16.60;99.90
35258;DHT22;21385;50.878;8.050;2023-05-10T11:23:54;16.60;99.90
35258;DHT22;21385;50.878;8.050;2023-05-10T11:26:35;16.60;99.90
35258;DHT22;21385;50.878;8.050;2023-05-10T11:29:01;16.50;99.90
35258;DHT22;21385;50.878;8.050;2023-05-10T11:31:28;16.40;99.90
35258;DHT22;21385;50.878;8.050;2023-05-10T11:33:56;16.40;99.90
35258;DHT22;21385;50.878;8.050;2023-05-10T11:36:32;16.20;99.90
35258;DHT22;21385;50.878;8.050;2023-05-10T11:38:57;16.00;99.90
35258;DHT22;21385;50.878;8.050;2023-05-10T11:41:24;15.70;99.90
35258;DHT22;21385;50.878;8.050;2023-05-10T11:43:52;15.50;99.90
35258;DHT22;21385;50.878;8.050;2023-05-10T11:46:22;15.20;99.90
35258;DHT22;21385;50.878;8.050;2023-05-10T11:49:00;15.00;99.90
35258;DHT22;21385;50.878;8.050;2023-05-10T11:51:27;14.80;99.90
35258;DHT22;21385;50.878;8.050;2023-05-10T11:53:54;14.60;99.90
35258;DHT22;21385;50.878;8.050;2023-05-10T11:56:20;14.50;99.90
35258;DHT22;21385;50.878;8.050;2023-05-10T11:58:55;14.50;99.90
35258;DHT22;21385;50.878;8.050;2023-05-10T12:01:21;14.50;99.90
35258;DHT22;21385;50.878;8.050;2023-05-10T12:03:49;14.30;99.90
35258;DHT22;21385;50.878;8.050;2023-05-10T12:06:15;14.20;99.90
35258;DHT22;21385;50.878;8.050;2023-05-10T12:08:45;14.10;99.90
35258;DHT22;21385;50.878;8.050;2023-05-10T12:11:12;14.10;99.90
35258;DHT22;21385;50.878;8.050;2023-05-10T12:13:43;14.20;99.90
35258;DHT22;21385;50.878;8.050;2023-05-10T12:16:18;14.20;99.90
35258;DHT22;21385;50.878;8.050;2023-05-10T12:18:45;14.30;99.90
35258;DHT22;21385;50.878;8.050;2023-05-10T12:21:13;14.30;99.90
35258;DHT22;21385;50.878;8.050;2023-05-10T12:23:40;14.30;99.90
35258;DHT22;21385;50.878;8.050;2023-05-10T12:26:09;14.30;99.90
35258;DHT22;21385;50.878;8.050;2023-05-10T12:28:35;14.30;99.90
35258;DHT22;21385;50.878;8.050;2023-05-10T12:31:01;14.30;99.90
35258;DHT22;21385;50.878;8.050;2023-05-10T12:33:27;14.40;99.90
35258;DHT22;21385;50.878;8.050;2023-05-10T12:35:54;14.50;99.90
35258;DHT22;21385;50.878;8.050;2023-05-10T12:38:41;14.60;99.90
35258;DHT22;21385;50.878;8.050;2023-05-10T12:41:15;14.70;99.90
35258;DHT22;21385;50.878;8.050;2023-05-10T12:43:41;14.80;99.90
35258;DHT22;21385;50.878;8.050;2023-05-10T12:46:14;15.00;99.90
35258;DHT22;21385;50.878;8.050;2023-05-10T12:48:41;15.10;99.90
35258;DHT22;21385;50.878;8.050;2023-05-10T12:51:07;15.10;99.90
35258;DHT22;21385;50.878;8.050;2023-05-10T12:53:41;15.30;99.90
35258;DHT22;21385;50.878;8.050;2023-05-10T12:56:06;15.40;99.90
35258;DHT22;21385;50.878;8.050;2023-05-10T12:58:32;15.50;99.90
35258;DHT22;21385;50.878;8.050;2023-05-10T13:00:58;15.60;99.90
35258;DHT22;21385;50.878;8.050;2023-05-10T13:03:24;15.60;99.90
35258;DHT22;21385;50.878;8.050;2023-05-10T13:05:50;15.70;99.90
35258;DHT22;21385;50.878;8.050;2023-05-10T13:08:15;15.80;99.90
35258;DHT22;21385;50.878;8.050;2023-05-10T13:10:41;15.80;99.90
35258;DHT22;21385;50.878;8.050;2023-05-10T13:13:07;15.80;99.90
35258;DHT22;21385;50.878;8.050;2023-05-10T13:15:35;15.80;99.90
35258;DHT22;21385;50.878;8.050;2023-05-10T13:18:01;15.80;99.90
35258;DHT22;21385;50.878;8.050;2023-05-10T13:20:26;15.80;99.90
35258;DHT22;21385;50.878;8.050;2023-05-10T13:22:52;15.90;99.90
35258;DHT22;21385;50.878;8.050;2023-05-10T13:25:18;15.90;99.90
35258;DHT22;21385;50.878;8.050;2023-05-10T13:27:45;16.00;99.90
35258;DHT22;21385;50.878;8.050;2023-05-10T13:30:11;16.00;99.90
35258;DHT22;21385;50.878;8.050;2023-05-10T13:32:37;16.00;99.90
35258;DHT22;21385;50.878;8.050;2023-05-10T13:35:03;16.00;99.90
35258;DHT22;21385;50.878;8.050;2023-05-10T13:37:30;15.90;99.90
35258;DHT22;21385;50.878;8.050;2023-05-10T13:39:56;15.80;99.90
35258;DHT22;21385;50.878;8.050;2023-05-10T13:42:22;15.80;99.90
35258;DHT22;21385;50.878;8.050;2023-05-10T13:47:15;15.50;99.90
35258;DHT22;21385;50.878;8.050;2023-05-10T13:49:40;15.50;99.90
35258;DHT22;21385;50.878;8.050;2023-05-10T13:52:06;15.40;99.90
35258;DHT22;21385;50.878;8.050;2023-05-10T13:54:38;15.30;99.90
35258;DHT22;21385;50.878;8.050;2023-05-10T13:57:03;15.20;99.90
35258;DHT22;21385;50.878;8.050;2023-05-10T13:59:30;15.20;99.90
35258;DHT22;21385;50.878;8.050;2023-05-10T14:01:57;15.30;99.90
35258;DHT22;21385;50.878;8.050;2023-05-10T14:04:23;15.30;99.90
35258;DHT22;21385;50.878;8.050;2023-05-10T14:06:49;15.30;99.90
35258;DHT22;21385;50.878;8.050;2023-05-10T14:09:15;15.40;99.90
35258;DHT22;21385;50.878;8.050;2023-05-10T14:11:41;15.50;99.90
35258;DHT22;21385;50.878;8.050;2023-05-10T14:14:09;15.50;99.90
35258;DHT22;21385;50.878;8.050;2023-05-10T14:16:35;15.60;99.90
35258;DHT22;21385;50.878;8.050;2023-05-10T14:19:00;15.60;99.90
35258;DHT22;21385;50.878;8.050;2023-05-10T14:21:27;15.60;99.90
35258;DHT22;21385;50.878;8.050;2023-05-10T14:23:54;15.60;99.90
35258;DHT22;21385;50.878;8.050;2023-05-10T14:26:19;15.60;99.90
35258;DHT22;21385;50.878;8.050;2023-05-10T14:28:46;15.70;99.90
35258;DHT22;21385;50.878;8.050;2023-05-10T14:31:11;15.90;99.90
35258;DHT22;21385;50.878;8.050;2023-05-10T14:33:37;15.90;99.90
35258;DHT22;21385;50.878;8.050;2023-05-10T14:36:03;15.80;99.90
35258;DHT22;21385;50.878;8.050;2023-05-10T14:38:29;15.90;99.90
35258;DHT22;21385;50.878;8.050;2023-05-10T14:40:55;15.80;99.90
35258;DHT22;21385;50.878;8.050;2023-05-10T14:43:20;15.80;99.90
35258;DHT22;21385;50.878;8.050;2023-05-10T14:45:46;15.90;99.90
35258;DHT22;21385;50.878;8.050;2023-05-10T14:48:12;15.90;99.90
35258;DHT22;21385;50.878;8.050;2023-05-10T14:50:43;16.00;99.90
35258;DHT22;21385;50.878;8.050;2023-05-10T14:53:08;16.10;99.90
35258;DHT22;21385;50.878;8.050;2023-05-10T14:55:34;16.30;99.90
35258;DHT22;21385;50.878;8.050;2023-05-10T14:58:01;16.30;99.90
35258;DHT22;21385;50.878;8.050;2023-05-10T15:00:28;16.30;99.90
35258;DHT22;21385;50.878;8.050;2023-05-10T15:02:54;16.30;99.90
35258;DHT22;21385;50.878;8.050;2023-05-10T15:05:19;16.40;99.90
35258;DHT22;21385;50.878;8.050;2023-05-10T15:07:45;16.60;99.90
35258;DHT22;21385;50.878;8.050;2023-05-10T15:10:11;16.70;99.90
35258;DHT22;21385;50.878;8.050;2023-05-10T15:12:37;16.80;99.90
35258;DHT22;21385;50.878;8.050;2023-05-10T15:17:29;17.00;99.90
35258;DHT22;21385;50.878;8.050;2023-05-10T15:19:55;17.20;99.90
35258;DHT22;21385;50.878;8.050;2023-05-10T15:22:20;17.20;99.90
35258;DHT22;21385;50.878;8.050;2023-05-10T15:24:47;17.20;99.90
35258;DHT22;21385;50.878;8.050;2023-05-10T15:27:12;17.20;99.90
35258;DHT22;21385;50.878;8.050;2023-05-10T15:29:38;17.30;99.90
35258;DHT22;21385;50.878;8.050;2023-05-10T15:32:03;17.50;99.90
35258;DHT22;21385;50.878;8.050;2023-05-10T15:34:29;17.60;99.90
35258;DHT22;21385;50.878;8.050;2023-05-10T15:36:55;17.70;99.90
35258;DHT22;21385;50.878;8.050;2023-05-10T15:39:20;17.80;99.90
35258;DHT22;21385;50.878;8.050;2023-05-10T15:41:46;17.90;99.90
35258;DHT22;21385;50.878;8.050;2023-05-10T15:44:12;17.80;99.90
35258;DHT22;21385;50.878;8.050;2023-05-10T15:46:38;17.50;99.90
35258;DHT22;21385;50.878;8.050;2023-05-10T15:49:03;17.30;99.90
35258;DHT22;21385;50.878;8.050;2023-05-10T15:51:30;17.30;99.90
35258;DHT22;21385;50.878;8.050;2023-05-10T15:53:58;17.20;99.90
35258;DHT22;21385;50.878;8.050;2023-05-10T15:56:23;17.10;99.90
35258;DHT22;21385;50.878;8.050;2023-05-10T15:58:49;17.00;99.90
35258;DHT22;21385;50.878;8.050;2023-05-10T16:01:15;16.90;99.90